Time;durP1;ratioP1;P1;durP2;ratioP2;P2;SDS_P1;SDS_P2;PMS_P1;PMS_P2;Temp;Humidity;BMP_temperature;BMP_pressure;BME280_temperature;BME280_humidity;BME280_pressure;Samples;Min_cycle;Max_cycle;Signal;HPM_P1;HPM_P2
2023/01/08 00:02:09;;;;;;;4.70;1.65;;;10.90;99.90;;;;;;4984650;28;20479;-64
2023/01/08 00:04:35;;;;;;;8.38;2.33;;;10.90;99.90;;;;;;4981930;28;20030;-64
2023/01/08 00:07:01;;;;;;;1.13;0.63;;;10.90;99.90;;;;;;4993783;28;20529;-63
2023/01/08 00:09:27;;;;;;;1.98;1.30;;;10.90;99.90;;;;;;4993769;28;20110;-67
2023/01/08 00:11:53;;;;;;;0.85;0.73;;;10.90;99.90;;;;;;4965046;28;20462;-63
2023/01/08 00:14:18;;;;;;;0.75;0.73;;;10.90;99.90;;;;;;4987475;28;20022;-65
2023/01/08 00:16:44;;;;;;;1.63;1.17;;;10.90;99.90;;;;;;4983952;28;20251;-64
2023/01/08 00:19:11;;;;;;;2.25;1.02;;;11.00;99.90;;;;;;4985338;28;20491;-64
2023/01/08 00:21:37;;;;;;;0.13;0.13;;;11.00;99.90;;;;;;4975950;28;20542;-64
2023/01/08 00:24:03;;;;;;;1.35;1.25;;;11.00;99.90;;;;;;4976801;28;20053;-64
2023/01/08 00:26:29;;;;;;;0.52;0.52;;;11.00;99.90;;;;;;4993985;28;20029;-64
2023/01/08 00:28:55;;;;;;;3.63;1.35;;;11.00;99.90;;;;;;4993742;28;20026;-64
2023/01/08 00:31:21;;;;;;;0.30;0.30;;;11.00;99.90;;;;;;4976287;28;20483;-64
2023/01/08 00:33:47;;;;;;;6.28;1.20;;;11.00;99.90;;;;;;4993603;28;20022;-64
2023/01/08 00:36:16;;;;;;;3.28;1.65;;;11.00;99.90;;;;;;4993221;28;20537;-64
2023/01/08 00:38:43;;;;;;;2.55;1.98;;;11.00;99.90;;;;;;4993768;28;20110;-64
2023/01/08 00:41:09;;;;;;;6.03;0.82;;;11.00;99.90;;;;;;4994089;28;20025;-64
2023/01/08 00:43:35;;;;;;;0.75;0.70;;;10.90;99.90;;;;;;4993880;28;20030;-64
2023/01/08 00:46:01;;;;;;;0.20;0.20;;;10.90;99.90;;;;;;4976043;28;20521;-64
2023/01/08 00:48:27;;;;;;;0.75;0.50;;;10.90;99.90;;;;;;4976156;28;20423;-63
2023/01/08 00:50:53;;;;;;;2.20;0.70;;;10.90;99.90;;;;;;4993283;28;20034;-64
2023/01/08 00:53:20;;;;;;;2.38;0.75;;;10.80;99.90;;;;;;4993444;28;20136;-63
2023/01/08 00:55:46;;;;;;;0.60;0.40;;;10.80;99.90;;;;;;4993113;28;20041;-64
2023/01/08 00:58:13;;;;;;;0.20;0.20;;;10.80;99.90;;;;;;4993615;28;20018;-64
2023/01/08 01:00:39;;;;;;;1.75;0.63;;;10.70;99.90;;;;;;4993622;28;20476;-63
2023/01/08 01:03:05;;;;;;;2.83;0.45;;;10.70;99.90;;;;;;4993366;28;20029;-68
2023/01/08 01:05:31;;;;;;;0.93;0.30;;;10.70;99.90;;;;;;4975863;28;20467;-64
2023/01/08 01:07:57;;;;;;;3.05;0.35;;;10.70;99.90;;;;;;4975373;28;20022;-63
2023/01/08 01:10:23;;;;;;;1.55;0.55;;;10.60;99.90;;;;;;4993354;28;20038;-64
2023/01/08 01:12:49;;;;;;;0.15;0.15;;;10.60;99.90;;;;;;4993068;28;20053;-67
2023/01/08 01:15:17;;;;;;;0.20;0.20;;;10.50;99.90;;;;;;4993547;28;20069;-64
2023/01/08 01:17:44;;;;;;;1.50;0.57;;;10.40;99.90;;;;;;4992875;28;20022;-67
2023/01/08 01:20:13;;;;;;;0.10;0.10;;;10.40;99.90;;;;;;4993137;28;20044;-66
2023/01/08 01:22:40;;;;;;;2.53;0.73;;;10.30;99.90;;;;;;4975812;28;20038;-63
2023/01/08 01:25:06;;;;;;;0.50;0.50;;;10.30;99.90;;;;;;4993208;28;20435;-66
2023/01/08 01:27:32;;;;;;;0.52;0.52;;;10.20;99.90;;;;;;4993476;28;20084;-63
2023/01/08 01:29:58;;;;;;;0.10;0.10;;;10.30;99.90;;;;;;4976198;28;20042;-67
2023/01/08 01:32:24;;;;;;;1.95;0.30;;;10.20;99.90;;;;;;4992789;28;20057;-64
2023/01/08 01:34:50;;;;;;;5.18;0.43;;;10.10;99.90;;;;;;4993196;28;20061;-64
2023/01/08 01:37:16;;;;;;;0.40;0.22;;;10.20;99.90;;;;;;4993243;28;20527;-63
2023/01/08 01:39:48;;;;;;;0.10;0.10;;;10.20;99.90;;;;;;4992918;28;20069;-64
2023/01/08 01:45:01;;;;;;;0.10;0.10;;;10.20;99.90;;;;;;4993212;28;20414;-64
2023/01/08 01:47:39;;;;;;;0.10;0.10;;;10.20;99.90;;;;;;4990932;28;20030;-63
2023/01/08 01:50:12;;;;;;;0.20;0.20;;;10.10;99.90;;;;;;4993030;28;20526;-63
2023/01/08 01:53:08;;;;;;;1.10;0.43;;;10.00;99.90;;;;;;4975302;28;20047;-68
2023/01/08 01:55:36;;;;;;;0.10;0.10;;;9.90;99.90;;;;;;4986955;28;20042;-64
2023/01/08 01:58:20;;;;;;;0.20;0.20;;;9.90;99.90;;;;;;4993039;28;20026;-63
2023/01/08 02:00:46;;;;;;;0.20;0.20;;;9.90;99.90;;;;;;4993046;28;20399;-63
2023/01/08 02:03:14;;;;;;;0.10;0.10;;;9.90;99.90;;;;;;4992842;28;20034;-64
2023/01/08 02:06:10;;;;;;;0.10;0.10;;;9.90;99.90;;;;;;4992688;28;20038;-64
2023/01/08 02:08:54;;;;;;;0.22;0.22;;;9.90;99.90;;;;;;4992945;28;20033;-64
2023/01/08 02:12:16;;;;;;;0.25;0.25;;;9.90;99.90;;;;;;4992742;28;20042;-63
2023/01/08 02:15:20;;;;;;;0.28;0.20;;;9.90;99.90;;;;;;4962808;28;20050;-64
2023/01/08 02:18:07;;;;;;;0.63;0.22;;;9.90;99.90;;;;;;4974992;28;20030;-64
2023/01/08 02:20:48;;;;;;;0.30;0.30;;;9.80;99.90;;;;;;4975868;28;20444;-65
2023/01/08 02:23:47;;;;;;;0.52;0.52;;;9.80;99.90;;;;;;4992508;28;20037;-64
2023/01/08 02:26:22;;;;;;;0.22;0.20;;;9.70;99.90;;;;;;4996400;28;20026;-64
2023/01/08 02:28:56;;;;;;;4.97;0.28;;;9.80;99.90;;;;;;4996331;28;20372;-64
2023/01/08 02:31:24;;;;;;;0.10;0.10;;;9.90;99.90;;;;;;4995932;28;20038;-64
2023/01/08 02:33:50;;;;;;;0.40;0.10;;;9.80;99.90;;;;;;4978657;28;20483;-64
2023/01/08 02:36:25;;;;;;;6.13;0.75;;;9.80;99.90;;;;;;4996169;28;20038;-64
2023/01/08 02:39:05;;;;;;;0.00;0.00;;;9.70;99.90;;;;;;4996012;28;20069;-63
2023/01/08 02:41:40;;;;;;;0.98;0.65;;;9.80;99.90;;;;;;4996110;28;20122;-63
2023/01/08 02:44:10;;;;;;;3.20;0.90;;;9.80;99.90;;;;;;4995983;28;20045;-63
2023/01/08 02:46:37;;;;;;;0.60;0.45;;;9.90;99.90;;;;;;4978387;28;20069;-64
2023/01/08 02:49:10;;;;;;;0.10;0.10;;;9.90;99.90;;;;;;4978728;28;20387;-63
2023/01/08 02:51:45;;;;;;;0.10;0.10;;;9.90;99.90;;;;;;4995658;28;20100;-64
2023/01/08 02:54:17;;;;;;;0.10;0.10;;;9.80;99.90;;;;;;4995760;28;20040;-66
2023/01/08 02:56:48;;;;;;;0.93;0.38;;;9.80;99.90;;;;;;4995758;28;20038;-63
2023/01/08 02:59:15;;;;;;;0.65;0.30;;;9.80;99.90;;;;;;4995855;28;20018;-64
2023/01/08 03:01:43;;;;;;;0.00;0.00;;;9.90;99.90;;;;;;4995567;28;20038;-64
2023/01/08 03:04:15;;;;;;;0.10;0.10;;;9.80;99.90;;;;;;4995524;28;20030;-64
2023/01/08 03:06:41;;;;;;;;;;;9.80;99.90;;;;;;4996156;28;20399;-63
2023/01/08 03:09:08;;;;;;;0.60;0.50;;;9.80;99.90;;;;;;4995774;28;19916;-64
2023/01/08 03:12:14;;;;;;;0.52;0.52;;;9.70;99.90;;;;;;4995371;28;20030;-65
2023/01/08 03:14:53;;;;;;;0.82;0.47;;;9.60;99.90;;;;;;4981377;28;20630;-64
2023/01/08 03:17:43;;;;;;;0.43;0.43;;;9.60;99.90;;;;;;4978087;28;20460;-64
2023/01/08 03:20:19;;;;;;;2.70;1.10;;;9.70;99.90;;;;;;4995471;28;20026;-63
2023/01/08 03:22:48;;;;;;;0.10;0.10;;;9.70;99.90;;;;;;4977474;28;20496;-64
2023/01/08 03:25:17;;;;;;;0.10;0.10;;;9.70;99.90;;;;;;4995355;28;20503;-64
2023/01/08 03:27:51;;;;;;;0.10;0.10;;;9.70;99.90;;;;;;4995447;28;20498;-64
2023/01/08 03:30:18;;;;;;;3.20;1.10;;;9.80;99.90;;;;;;4995011;28;20042;-64
2023/01/08 03:32:45;;;;;;;2.45;1.10;;;9.80;99.90;;;;;;4995177;28;20045;-64
2023/01/08 03:35:14;;;;;;;2.72;1.02;;;9.90;99.90;;;;;;4976737;28;20149;-66
2023/01/08 03:37:44;;;;;;;0.30;0.30;;;9.80;99.90;;;;;;4977526;28;20387;-64
2023/01/08 03:40:20;;;;;;;1.40;0.75;;;9.80;99.90;;;;;;4995200;28;20021;-63
2023/01/08 03:42:46;;;;;;;3.40;1.20;;;9.80;99.90;;;;;;4994931;28;20475;-64
2023/01/08 03:45:12;;;;;;;0.32;0.32;;;9.70;99.90;;;;;;4977149;28;20054;-63
2023/01/08 03:47:40;;;;;;;0.32;0.30;;;9.70;99.90;;;;;;4995083;28;20475;-68
2023/01/08 03:50:11;;;;;;;0.30;0.30;;;9.70;99.90;;;;;;4994802;28;20077;-63
2023/01/08 03:52:37;;;;;;;5.23;0.33;;;9.70;99.90;;;;;;4977533;28;20399;-63
2023/01/08 03:55:03;;;;;;;0.43;0.38;;;9.70;99.90;;;;;;4994528;28;20022;-63
2023/01/08 03:57:29;;;;;;;2.60;0.80;;;9.70;99.90;;;;;;4962993;28;20019;-64
2023/01/08 03:59:55;;;;;;;1.35;0.57;;;9.60;99.90;;;;;;4987050;28;20042;-63
2023/01/08 04:02:20;;;;;;;0.45;0.45;;;9.60;99.90;;;;;;4994441;28;20105;-63
2023/01/08 04:04:46;;;;;;;0.40;0.35;;;9.60;99.90;;;;;;4995074;28;20030;-64
2023/01/08 04:07:12;;;;;;;0.30;0.30;;;9.60;99.90;;;;;;4994912;28;20028;-64
2023/01/08 04:09:38;;;;;;;5.20;1.23;;;9.60;99.90;;;;;;4962287;28;20034;-65
2023/01/08 04:12:05;;;;;;;0.10;0.10;;;9.50;99.90;;;;;;4997967;28;20038;-65
2023/01/08 04:14:30;;;;;;;8.90;0.57;;;9.50;99.90;;;;;;4992980;28;20065;-67
2023/01/08 04:16:56;;;;;;;1.33;0.50;;;9.50;99.90;;;;;;4976732;28;20077;-63
2023/01/08 04:19:22;;;;;;;1.48;0.65;;;9.40;99.90;;;;;;4994339;28;20026;-66
2023/01/08 04:21:51;;;;;;;0.20;0.20;;;9.30;99.90;;;;;;4993775;28;20043;-71
2023/01/08 04:24:18;;;;;;;0.88;0.65;;;9.40;99.90;;;;;;4994019;28;20034;-67
2023/01/08 04:26:44;;;;;;;0.65;0.57;;;9.40;99.90;;;;;;4993671;28;20023;-68
2023/01/08 04:29:12;;;;;;;1.13;0.43;;;9.40;99.90;;;;;;4993276;28;20034;-70
2023/01/08 04:31:37;;;;;;;0.10;0.10;;;9.20;99.90;;;;;;4993506;28;20081;-67
2023/01/08 04:34:03;;;;;;;3.15;0.45;;;9.10;99.90;;;;;;4976867;28;20034;-67
2023/01/08 04:36:29;;;;;;;0.10;0.10;;;9.10;99.90;;;;;;4993757;28;20053;-66
2023/01/08 04:38:55;;;;;;;3.40;0.35;;;9.00;99.90;;;;;;4994060;28;20069;-64
2023/01/08 04:41:21;;;;;;;0.82;0.63;;;9.00;99.90;;;;;;4993601;28;20402;-64
2023/01/08 04:43:46;;;;;;;3.40;0.88;;;9.00;99.90;;;;;;4993958;28;20030;-63
2023/01/08 04:46:12;;;;;;;3.08;1.85;;;8.90;99.90;;;;;;4993556;28;20026;-64
2023/01/08 04:48:38;;;;;;;2.72;0.95;;;8.90;99.90;;;;;;4993785;28;20030;-63
2023/01/08 04:51:04;;;;;;;0.20;0.20;;;8.90;99.90;;;;;;4993839;28;20120;-63
2023/01/08 04:53:34;;;;;;;0.10;0.10;;;8.90;99.90;;;;;;4993216;28;20032;-65
2023/01/08 04:56:04;;;;;;;3.10;0.82;;;8.90;99.90;;;;;;4975925;28;20395;-64
2023/01/08 04:58:30;;;;;;;23.15;1.30;;;8.90;99.90;;;;;;4993495;28;20379;-70
2023/01/08 05:00:56;;;;;;;4.20;0.75;;;8.70;99.90;;;;;;4993650;28;20100;-68
2023/01/08 05:03:21;;;;;;;0.10;0.10;;;8.70;99.90;;;;;;4976274;28;20034;-64
2023/01/08 05:05:47;;;;;;;2.08;0.17;;;8.70;99.90;;;;;;4993210;28;20033;-65
2023/01/08 05:08:13;;;;;;;0.75;0.30;;;8.60;99.90;;;;;;4993510;28;20080;-64
2023/01/08 05:10:39;;;;;;;0.40;0.30;;;8.60;99.90;;;;;;4993136;28;20038;-65
2023/01/08 05:13:05;;;;;;;0.30;0.30;;;8.70;99.90;;;;;;4993420;28;20038;-64
2023/01/08 05:15:30;;;;;;;0.10;0.10;;;8.60;99.90;;;;;;4976061;28;20037;-64
2023/01/08 05:18:04;;;;;;;2.55;0.10;;;8.80;99.90;;;;;;4993568;28;20467;-68
2023/01/08 05:20:33;;;;;;;3.65;0.65;;;8.60;99.90;;;;;;4993583;28;20490;-64
2023/01/08 05:23:00;;;;;;;5.80;0.80;;;8.50;99.90;;;;;;4993132;28;20396;-68
2023/01/08 05:25:25;;;;;;;0.65;0.45;;;8.50;99.90;;;;;;4992982;28;20041;-66
2023/01/08 05:27:52;;;;;;;0.85;0.85;;;8.40;99.90;;;;;;4992554;28;20101;-65
2023/01/08 05:30:18;;;;;;;0.55;0.40;;;8.50;99.90;;;;;;4975305;28;20097;-67
2023/01/08 05:32:44;;;;;;;1.65;1.55;;;8.40;99.90;;;;;;4991374;28;20574;-65
2023/01/08 05:35:10;;;;;;;0.88;0.30;;;8.30;99.90;;;;;;4974225;28;20110;-64
2023/01/08 05:37:36;;;;;;;0.20;0.20;;;8.30;99.90;;;;;;4974071;28;20029;-63
2023/01/08 05:40:03;;;;;;;2.10;0.30;;;8.30;99.90;;;;;;4983953;28;20476;-63
2023/01/08 05:42:29;;;;;;;0.10;0.10;;;8.20;99.90;;;;;;4975743;28;20034;-66
2023/01/08 05:44:55;;;;;;;1.95;0.93;;;8.20;99.90;;;;;;4977371;28;20022;-67
2023/01/08 05:47:21;;;;;;;0.10;0.10;;;8.10;99.90;;;;;;4974997;28;20027;-66
2023/01/08 05:49:46;;;;;;;14.75;1.42;;;8.00;99.90;;;;;;4975625;28;20506;-67
2023/01/08 05:52:12;;;;;;;0.13;0.13;;;8.10;99.90;;;;;;4956867;28;20372;-66
2023/01/08 05:54:38;;;;;;;0.50;0.13;;;8.00;99.90;;;;;;4973454;28;20030;-72
2023/01/08 05:57:03;;;;;;;0.00;0.00;;;8.10;99.90;;;;;;4977143;28;20109;-69
2023/01/08 05:59:29;;;;;;;0.17;0.17;;;8.10;99.90;;;;;;4958803;28;20093;-65
2023/01/08 06:01:55;;;;;;;0.77;0.35;;;8.10;99.90;;;;;;4977774;28;20030;-67
2023/01/08 06:04:21;;;;;;;0.00;0.00;;;8.00;99.90;;;;;;4974650;28;20053;-67
2023/01/08 06:06:47;;;;;;;0.28;0.25;;;8.00;99.90;;;;;;4959525;28;20034;-70
2023/01/08 06:09:13;;;;;;;0.35;0.20;;;8.00;99.90;;;;;;4958926;28;20026;-63
2023/01/08 06:11:39;;;;;;;8.43;2.20;;;8.00;99.90;;;;;;4975702;28;20047;-67
2023/01/08 06:14:04;;;;;;;0.17;0.17;;;7.90;99.90;;;;;;4980327;28;20089;-69
2023/01/08 06:16:30;;;;;;;2.83;0.20;;;7.90;99.90;;;;;;4960486;28;20058;-64
2023/01/08 06:18:56;;;;;;;0.38;0.13;;;7.80;99.90;;;;;;4977895;28;20026;-65
2023/01/08 06:21:22;;;;;;;0.50;0.50;;;7.80;99.90;;;;;;4977050;28;20423;-64
2023/01/08 06:23:47;;;;;;;0.95;0.40;;;7.90;99.90;;;;;;4975708;28;20402;-64
2023/01/08 06:26:13;;;;;;;3.92;0.57;;;8.00;99.90;;;;;;4959048;28;20158;-66
2023/01/08 06:28:39;;;;;;;0.10;0.10;;;8.00;99.90;;;;;;4975446;28;20559;-66
2023/01/08 06:31:04;;;;;;;0.30;0.30;;;7.90;99.90;;;;;;4962526;28;20503;-64
2023/01/08 06:33:30;;;;;;;2.72;0.40;;;8.00;99.90;;;;;;4959890;28;20034;-67
2023/01/08 06:36:03;;;;;;;0.40;0.40;;;8.00;99.90;;;;;;4977514;28;20034;-66
2023/01/08 06:38:34;;;;;;;0.10;0.10;;;7.90;99.90;;;;;;4957812;28;20034;-65
2023/01/08 06:41:04;;;;;;;2.17;0.50;;;8.10;99.90;;;;;;4976268;28;20035;-66
2023/01/08 06:43:31;;;;;;;3.20;1.00;;;8.20;99.90;;;;;;4975525;28;20049;-64
2023/01/08 06:45:57;;;;;;;0.50;0.45;;;8.10;99.90;;;;;;4975025;28;20023;-66
2023/01/08 06:48:24;;;;;;;0.63;0.60;;;8.10;99.90;;;;;;4980039;28;20031;-67
2023/01/08 06:50:49;;;;;;;0.75;0.57;;;8.10;99.90;;;;;;4976685;28;20480;-66
2023/01/08 06:53:15;;;;;;;0.30;0.30;;;8.10;99.90;;;;;;4985603;28;20033;-66
2023/01/08 06:55:41;;;;;;;0.00;0.00;;;8.10;99.90;;;;;;4977283;28;20038;-68
2023/01/08 06:58:11;;;;;;;0.55;0.55;;;8.10;99.90;;;;;;4976793;28;20392;-68
2023/01/08 07:00:37;;;;;;;0.55;0.35;;;8.00;99.90;;;;;;4977416;28;20030;-65
2023/01/08 07:03:03;;;;;;;0.17;0.17;;;8.00;99.90;;;;;;4975871;28;20019;-67
2023/01/08 07:05:30;;;;;;;3.42;1.65;;;8.00;99.90;;;;;;4975580;28;20090;-69
2023/01/08 07:07:55;;;;;;;0.68;0.68;;;8.00;99.90;;;;;;4974584;28;20030;-72
2023/01/08 07:10:21;;;;;;;0.00;0.00;;;8.10;99.90;;;;;;4977089;28;20460;-66
2023/01/08 07:12:47;;;;;;;1.35;1.30;;;8.00;99.90;;;;;;4972182;28;20019;-65
2023/01/08 07:15:14;;;;;;;3.40;0.55;;;8.10;99.90;;;;;;4979587;28;20487;-72
2023/01/08 07:17:40;;;;;;;1.05;1.00;;;8.10;99.90;;;;;;4979534;28;20023;-66
2023/01/08 07:20:06;;;;;;;13.52;0.68;;;8.10;99.90;;;;;;4982151;28;20034;-71
2023/01/08 07:22:32;;;;;;;0.00;0.00;;;8.20;99.90;;;;;;4975192;28;20039;-69
2023/01/08 07:24:58;;;;;;;1.15;0.63;;;8.20;99.90;;;;;;4974416;28;20029;-67
2023/01/08 07:27:23;;;;;;;0.10;0.10;;;8.10;99.90;;;;;;4977275;28;20022;-66
2023/01/08 07:29:49;;;;;;;0.20;0.20;;;8.10;99.90;;;;;;4973026;28;20498;-68
2023/01/08 07:32:15;;;;;;;0.30;0.30;;;8.00;99.90;;;;;;4976120;28;20049;-66
2023/01/08 07:34:41;;;;;;;1.38;0.70;;;8.00;99.90;;;;;;4977002;28;20110;-64
2023/01/08 07:37:06;;;;;;;1.88;0.65;;;8.00;99.90;;;;;;4941608;28;20027;-68
2023/01/08 07:39:33;;;;;;;3.08;0.55;;;7.90;99.90;;;;;;4981099;28;20030;-65
2023/01/08 07:41:58;;;;;;;0.82;0.45;;;7.80;99.90;;;;;;4975232;28;20039;-66
2023/01/08 07:44:24;;;;;;;8.77;1.88;;;7.80;99.90;;;;;;4976845;28;20072;-65
2023/01/08 07:46:50;;;;;;;0.38;0.38;;;7.90;99.90;;;;;;4980896;28;20030;-67
2023/01/08 07:49:15;;;;;;;5.47;1.60;;;7.90;99.90;;;;;;4975896;28;20030;-65
2023/01/08 07:51:41;;;;;;;1.27;0.45;;;7.90;99.90;;;;;;4975637;28;20043;-65
2023/01/08 07:54:07;;;;;;;0.50;0.50;;;7.90;99.90;;;;;;4974765;28;20033;-68
2023/01/08 07:56:32;;;;;;;1.10;0.22;;;7.90;99.90;;;;;;4978819;28;20050;-71
2023/01/08 07:58:58;;;;;;;1.45;0.95;;;7.80;99.90;;;;;;4981262;28;20117;-67
2023/01/08 08:01:25;;;;;;;0.35;0.30;;;7.90;99.90;;;;;;4974768;28;20030;-65
2023/01/08 08:03:51;;;;;;;10.10;0.77;;;7.90;99.90;;;;;;4978714;28;20109;-65
2023/01/08 08:06:17;;;;;;;1.70;0.50;;;7.90;99.90;;;;;;4976405;28;20134;-69
2023/01/08 08:08:43;;;;;;;1.10;0.35;;;7.90;99.90;;;;;;4974391;28;20101;-68
2023/01/08 08:11:09;;;;;;;1.05;0.50;;;7.90;99.90;;;;;;4977814;28;20039;-67
2023/01/08 08:13:35;;;;;;;0.38;0.38;;;7.90;99.90;;;;;;4975457;28;20023;-65
2023/01/08 08:16:04;;;;;;;0.75;0.52;;;7.90;99.90;;;;;;4979452;28;20395;-65
2023/01/08 08:18:30;;;;;;;1.70;0.63;;;7.90;99.90;;;;;;4976656;28;20117;-70
2023/01/08 08:20:56;;;;;;;0.10;0.10;;;7.80;99.90;;;;;;4957955;28;20053;-68
2023/01/08 08:23:22;;;;;;;3.70;0.95;;;7.80;99.90;;;;;;4978415;28;20126;-71
2023/01/08 08:25:48;;;;;;;0.30;0.20;;;7.80;99.90;;;;;;4977313;28;20118;-67
2023/01/08 08:28:14;;;;;;;0.22;0.22;;;7.80;99.90;;;;;;4982055;28;20022;-65
2023/01/08 08:30:39;;;;;;;1.70;0.57;;;7.80;99.90;;;;;;4993689;28;20109;-64
2023/01/08 08:33:06;;;;;;;1.40;1.35;;;7.80;99.90;;;;;;4993560;28;20076;-64
2023/01/08 08:35:33;;;;;;;2.30;1.50;;;7.90;99.90;;;;;;4993833;28;20037;-71
2023/01/08 08:37:59;;;;;;;1.95;0.85;;;7.90;99.90;;;;;;4976227;28;20446;-64
2023/01/08 08:40:26;;;;;;;0.90;0.47;;;7.90;99.90;;;;;;4993723;28;20479;-70
2023/01/08 08:42:56;;;;;;;0.73;0.55;;;7.90;99.90;;;;;;4993487;28;20037;-67
2023/01/08 08:45:22;;;;;;;0.10;0.10;;;7.90;99.90;;;;;;4993968;28;20034;-68
2023/01/08 08:47:48;;;;;;;8.43;1.33;;;7.90;99.90;;;;;;4975621;28;20034;-67
2023/01/08 08:50:13;;;;;;;13.90;0.85;;;7.90;99.90;;;;;;4976433;28;20031;-68
2023/01/08 08:52:39;;;;;;;0.15;0.15;;;7.90;99.90;;;;;;4993587;28;20037;-69
2023/01/08 08:55:06;;;;;;;5.90;1.65;;;8.00;99.90;;;;;;4993390;28;20038;-66
2023/01/08 08:57:32;;;;;;;0.10;0.10;;;8.10;99.90;;;;;;4993958;28;20105;-68
2023/01/08 08:59:58;;;;;;;3.40;1.05;;;8.10;99.90;;;;;;4993425;28;20070;-65
2023/01/08 09:02:24;;;;;;;9.43;0.35;;;8.20;99.90;;;;;;4992921;28;20022;-67
2023/01/08 09:04:50;;;;;;;3.50;1.08;;;8.20;99.90;;;;;;4993537;28;20378;-65
2023/01/08 09:07:16;;;;;;;5.15;1.65;;;8.30;99.90;;;;;;4993729;28;20041;-68
2023/01/08 09:09:41;;;;;;;0.30;0.30;;;8.30;99.90;;;;;;4993470;28;20136;-65
2023/01/08 09:12:08;;;;;;;2.10;0.75;;;8.50;99.90;;;;;;4993276;28;20444;-68
2023/01/08 09:14:34;;;;;;;1.27;0.32;;;8.60;99.90;;;;;;4993587;28;20029;-68
2023/01/08 09:17:00;;;;;;;1.85;0.40;;;8.60;99.90;;;;;;4975721;28;20112;-72
2023/01/08 09:19:25;;;;;;;0.38;0.38;;;8.70;99.90;;;;;;4993376;28;20030;-68
2023/01/08 09:21:51;;;;;;;1.63;0.80;;;8.90;99.90;;;;;;4992536;28;20044;-67
2023/01/08 09:24:17;;;;;;;0.10;0.10;;;9.00;99.90;;;;;;4992305;28;20049;-65
2023/01/08 09:26:42;;;;;;;1.35;1.20;;;9.10;99.90;;;;;;4992605;28;20026;-65
2023/01/08 09:29:09;;;;;;;0.20;0.20;;;9.10;99.90;;;;;;4992255;28;20390;-65
2023/01/08 09:31:35;;;;;;;1.27;0.40;;;9.10;99.90;;;;;;4992240;28;20082;-68
2023/01/08 09:34:01;;;;;;;1.20;0.40;;;9.20;99.90;;;;;;4994333;28;20153;-71
2023/01/08 09:36:27;;;;;;;2.85;0.90;;;9.20;99.90;;;;;;4989379;28;20029;-68
2023/01/08 09:38:52;;;;;;;0.20;0.20;;;9.30;99.90;;;;;;4978781;28;20039;-68
2023/01/08 09:41:32;;;;;;;2.72;0.32;;;9.50;99.90;;;;;;4980706;28;20042;-69
2023/01/08 09:44:01;;;;;;;1.17;0.90;;;9.40;99.90;;;;;;4977779;28;20031;-65
2023/01/08 09:46:28;;;;;;;1.20;0.50;;;9.50;99.90;;;;;;4981169;28;20030;-66
2023/01/08 09:48:58;;;;;;;1.88;0.73;;;9.70;99.90;;;;;;4979704;28;20472;-65
2023/01/08 09:51:32;;;;;;;1.40;0.63;;;9.70;99.90;;;;;;4979626;28;20038;-66
2023/01/08 09:53:57;;;;;;;1.50;0.73;;;10.00;99.90;;;;;;4996372;28;20486;-65
2023/01/08 09:56:24;;;;;;;0.85;0.30;;;10.00;99.90;;;;;;4996300;28;20030;-64
2023/01/08 09:58:51;;;;;;;3.95;1.27;;;10.20;99.90;;;;;;4996460;28;20483;-65
2023/01/08 10:01:23;;;;;;;4.72;0.80;;;10.30;99.90;;;;;;4996353;28;20049;-67
2023/01/08 10:04:11;;;;;;;0.20;0.20;;;10.20;99.90;;;;;;4996533;28;20037;-65
2023/01/08 10:06:38;;;;;;;0.75;0.50;;;10.50;99.90;;;;;;4996512;28;20046;-66
2023/01/08 10:09:04;;;;;;;2.33;1.05;;;10.50;99.90;;;;;;4996278;28;20485;-66
2023/01/08 10:11:39;;;;;;;0.20;0.20;;;10.60;99.90;;;;;;4996351;28;20081;-64
2023/01/08 10:14:21;;;;;;;6.93;0.68;;;10.50;99.90;;;;;;4996654;28;20034;-65
2023/01/08 10:16:57;;;;;;;4.15;0.75;;;10.50;99.90;;;;;;4997011;28;20034;-66
2023/01/08 10:19:23;;;;;;;0.28;0.28;;;10.70;99.90;;;;;;5010003;28;20359;-68
2023/01/08 10:21:50;;;;;;;0.10;0.10;;;10.70;99.90;;;;;;4996485;28;20357;-64
2023/01/08 10:24:15;;;;;;;2.15;0.93;;;10.80;99.90;;;;;;4996188;28;20042;-64
2023/01/08 10:26:41;;;;;;;0.55;0.40;;;10.60;99.90;;;;;;4989470;28;20019;-65
2023/01/08 10:29:08;;;;;;;1.58;0.17;;;10.90;99.90;;;;;;4978638;28;20113;-64
2023/01/08 10:31:46;;;;;;;1.02;0.50;;;10.90;99.90;;;;;;4982381;28;20089;-64
2023/01/08 10:34:38;;;;;;;0.32;0.32;;;10.80;99.90;;;;;;4976623;28;20031;-64
2023/01/08 10:37:35;;;;;;;0.20;0.20;;;11.00;99.90;;;;;;4965190;28;20075;-64
2023/01/08 10:40:28;;;;;;;8.68;2.30;;;11.30;99.90;;;;;;4986735;28;20039;-64
2023/01/08 10:42:57;;;;;;;3.30;0.80;;;11.00;99.90;;;;;;4981982;28;20484;-64
2023/01/08 10:45:26;;;;;;;3.15;0.50;;;11.00;99.90;;;;;;4986204;28;20037;-64
2023/01/08 10:47:56;;;;;;;1.55;0.75;;;11.40;99.90;;;;;;4981001;28;20041;-64
2023/01/08 10:50:28;;;;;;;1.90;0.50;;;11.60;99.90;;;;;;4981763;28;20035;-65
2023/01/08 10:52:57;;;;;;;1.40;0.40;;;11.80;99.90;;;;;;4981608;28;20038;-66
2023/01/08 10:55:28;;;;;;;0.57;0.28;;;11.90;99.90;;;;;;4987741;28;20077;-66
2023/01/08 10:57:56;;;;;;;0.35;0.30;;;12.00;99.90;;;;;;4966484;28;20077;-65
2023/01/08 11:00:34;;;;;;;0.20;0.20;;;11.90;99.90;;;;;;4983119;28;20426;-65
2023/01/08 11:03:19;;;;;;;2.40;0.93;;;11.70;99.90;;;;;;4986473;28;20015;-64
2023/01/08 11:05:46;;;;;;;0.10;0.10;;;11.40;99.90;;;;;;4963473;28;20038;-64
2023/01/08 11:08:20;;;;;;;1.70;0.63;;;10.70;99.90;;;;;;4983429;28;20054;-68
2023/01/08 11:10:58;;;;;;;6.47;1.05;;;10.80;99.90;;;;;;4992710;28;20069;-65
2023/01/08 11:13:26;;;;;;;0.20;0.20;;;10.80;99.90;;;;;;4986936;28;20039;-65
2023/01/08 11:16:09;;;;;;;2.65;0.85;;;11.10;99.90;;;;;;4980541;28;20419;-64
2023/01/08 11:18:46;;;;;;;1.90;0.40;;;11.50;99.90;;;;;;4979514;28;20035;-64
2023/01/08 11:21:29;;;;;;;0.10;0.10;;;11.20;99.90;;;;;;4978113;28;20053;-64
2023/01/08 11:24:18;;;;;;;2.83;0.43;;;11.50;99.90;;;;;;4961609;28;20058;-64
2023/01/08 11:26:50;;;;;;;0.43;0.40;;;11.50;99.90;;;;;;4983918;28;20096;-64
2023/01/08 11:29:44;;;;;;;2.50;0.38;;;11.20;99.90;;;;;;4983411;28;20523;-66
2023/01/08 11:32:25;;;;;;;3.85;0.95;;;11.40;99.90;;;;;;4979627;28;20407;-64
2023/01/08 11:34:59;;;;;;;4.78;1.55;;;11.60;99.90;;;;;;4963939;28;20531;-63
2023/01/08 11:37:34;;;;;;;10.52;1.38;;;11.50;99.90;;;;;;4975887;28;20471;-66
2023/01/08 11:40:00;;;;;;;0.57;0.55;;;11.50;99.90;;;;;;4978086;28;20037;-66
2023/01/08 11:42:45;;;;;;;4.75;1.27;;;11.70;99.90;;;;;;4977286;28;20034;-65
2023/01/08 11:45:35;;;;;;;3.78;0.57;;;11.90;99.90;;;;;;4977280;28;20114;-69
2023/01/08 11:48:04;;;;;;;2.70;0.55;;;11.90;99.90;;;;;;4977533;28;20054;-72
2023/01/08 11:50:58;;;;;;;0.43;0.40;;;11.60;99.90;;;;;;4975010;28;20097;-66
2023/01/08 11:53:41;;;;;;;3.95;1.38;;;12.20;99.90;;;;;;4992155;28;20031;-69
2023/01/08 11:56:16;;;;;;;0.38;0.38;;;12.10;99.90;;;;;;4987076;28;20468;-64
2023/01/08 11:58:54;;;;;;;0.10;0.10;;;12.20;99.90;;;;;;4958552;28;20388;-65
2023/01/08 12:01:47;;;;;;;5.25;0.30;;;11.40;99.90;;;;;;4974848;28;20038;-64
2023/01/08 12:04:28;;;;;;;2.05;0.68;;;11.70;99.90;;;;;;4979166;28;20058;-67
2023/01/08 12:07:01;;;;;;;4.95;0.73;;;12.20;99.90;;;;;;4976364;28;20472;-64
2023/01/08 12:09:45;;;;;;;6.35;1.25;;;12.30;99.90;;;;;;4993046;28;20032;-67
2023/01/08 12:12:48;;;;;;;3.22;0.30;;;12.40;99.90;;;;;;4981196;28;20133;-64
2023/01/08 12:15:44;;;;;;;1.40;0.22;;;12.60;99.90;;;;;;4986414;28;20387;-64
2023/01/08 12:18:38;;;;;;;0.68;0.45;;;12.50;99.90;;;;;;4938730;28;20129;-65
2023/01/08 12:21:26;;;;;;;1.27;0.35;;;12.20;99.90;;;;;;4977216;28;20059;-65
2023/01/08 12:24:01;;;;;;;0.00;0.00;;;13.10;99.90;;;;;;4983853;28;20041;-66
2023/01/08 12:26:54;;;;;;;4.28;0.88;;;13.60;99.90;;;;;;4988723;28;20030;-64
2023/01/08 12:29:47;;;;;;;0.65;0.47;;;14.00;99.90;;;;;;4986430;28;20026;-64
2023/01/08 12:32:37;;;;;;;2.90;0.55;;;13.30;99.90;;;;;;4986813;28;20034;-67
2023/01/08 12:35:37;;;;;;;3.30;0.50;;;13.30;99.90;;;;;;4986936;28;20379;-64
2023/01/08 12:38:14;;;;;;;0.45;0.32;;;13.00;99.90;;;;;;4989017;28;20122;-65
2023/01/08 12:40:51;;;;;;;0.70;0.20;;;13.10;99.90;;;;;;4990509;28;20559;-67
2023/01/08 12:43:52;;;;;;;0.20;0.10;;;13.00;99.90;;;;;;4991590;28;20053;-68
2023/01/08 12:46:18;;;;;;;0.85;0.57;;;13.00;99.90;;;;;;4969684;28;20494;-66
2023/01/08 12:48:48;;;;;;;4.63;1.00;;;12.10;99.90;;;;;;4993264;28;20101;-65
2023/01/08 12:51:25;;;;;;;3.60;1.20;;;11.80;99.90;;;;;;4993588;28;20506;-66
2023/01/08 12:54:21;;;;;;;0.30;0.30;;;11.70;99.90;;;;;;4981715;28;20101;-65
2023/01/08 12:57:10;;;;;;;5.68;1.23;;;11.60;99.90;;;;;;4993424;28;20022;-68
2023/01/08 13:00:00;;;;;;;4.78;0.95;;;11.20;99.90;;;;;;4993723;28;20511;-68
2023/01/08 13:02:47;;;;;;;6.93;1.15;;;11.20;99.90;;;;;;4993337;28;20088;-66
2023/01/08 13:05:19;;;;;;;1.90;0.63;;;11.40;99.90;;;;;;4976323;28;20360;-68
2023/01/08 13:08:03;;;;;;;;;;;11.40;99.90;;;;;;4980355;28;20026;-67
2023/01/08 13:10:39;;;;;;;1.55;0.68;;;11.30;99.90;;;;;;4983179;28;19918;-68
2023/01/08 13:13:31;;;;;;;9.13;1.10;;;11.40;99.90;;;;;;4981985;28;20494;-65
2023/01/08 13:16:07;;;;;;;1.35;0.65;;;11.40;99.90;;;;;;4991190;28;20018;-66